MAD weather

Adolfo Suárez Madrid–Barajas Airport
Madrid, Madrid, Spain

Public forecast

Using degrees Celsius for public forecast. Weather courtesy of forecast.io.

Current aviation weather report (METAR) for Adolfo Suárez Madrid–Barajas Airport

Retrieved 2019/10/23 01:30 UTC (17 minutes ago):

LEMD 230130Z 22009KT 9999 -RA BKN060 09/08 Q1006 R88/29//95 NOSIG

Aviation forecast (TAF) for Adolfo Suárez Madrid–Barajas Airport

Retrieved 2019-10-23 00:27 UTC (1 hour ago):

TAF LEMD 222300Z 2300/2406 VRB04KT 9999 BKN050 TX12/2316Z TN06/2307Z TEMPO 2300/2305 3000 RA SHRA BR BKN010 SCT030TCU PROB30 TEMPO 2300/2304 TSRA SCT030CB PROB30 TEMPO 2304/2406 2000 RADZ BR BKN010 PROB40 TEMPO 2307/2318 23006G16KT